Terminal Aerodrome Forecast
Issued by NWS Mt. Holly, NJ

Current Version | Previous Version | Text Only | Print | Product List | Glossary On
Versions: 1 2 3 4 5 6 7 8 9 10 11 12 13 14 15 16 17 18 19 20 21
352
FTUS41 KPHI 301720
TAFACY
TAF
KACY 301720Z 3018/0118 10009KT P6SM BKN035
     FM010600 11003KT P6SM -RA SCT025 BKN040
     FM011000 09009KT 5SM -RA SCT009 BKN025
     FM011400 11009KT 2SM RA BR OVC009=

USA.gov is the U.S. government's official web portal to all federal, state and local government web resources and services.